Accueil
METAR-TAF:

METAR-TAF

Aéroports :

Kahramanmaraş, Turquie

latitude: 37-32-20N, longitude: 036-57-12E, altitude: 525 m

Observation

Le bulletin a été fait il y a 25 minutes, à 07:50 UTC
Vent 5 kt de est/nord-est
Température 9°C
Humidité 87%
Pression 1020 hPa
Visibilité 10 km ou plus
Nuages épars à une hauteur de 3500 ft
Nuages fragmentés à une hauteur de 10000 ft

METAR: LTCN 060750Z 07005KT 9999 SCT035 BKN100 09/07 Q1020 NOSIG

Heure: 11:15 (08:15 UTC)

Prévision

Le bulletin a été fait il y a 3 heures et 35 minutes, à 04:40 UTC
Prévision valable du 06 à 06 UTC au 06 à 15 UTC
Vent 2 kt de direction variable
Visibilité 10 km ou plus
Nuages épars à une hauteur de 3000 ft
Nuages fragmentés à une hauteur de 9000 ft
Temporairement
du 06 à 06 UTC au 06 à 09 UTC
faibles averses de pluie

TAF: LTCN 060440Z 0606/0615 VRB02KT 9999 SCT030 BKN090 TEMPO 0606/0609 -SHRA

Observations et prévisions météorologiques de plus de 4000 aéroports (messages METAR et TAF).

Les stations disponibles sont représentées par des disques jaunes et rouges sur la carte.

Passer la souris dessus pour voir le nom de la station.

Cliquer dessus pour voir les observations et prévisions météorologiques.

Pour changer de carte: cliquez sur les boutons verts avec une croix noire pour zoomer, sur le bouton vert avec un tiret pour effectuer un zoom arrière, ou sur les flèches vertes pour les cartes adjacentes.


METAR-TAF: